createdAt,value
2022-08-21T00:00:27.948Z,20.05
2022-08-21T00:02:59.064Z,18.88
2022-08-21T00:05:27.004Z,20.50
2022-08-21T00:07:54.007Z,19.08
2022-08-21T00:10:21.004Z,18.95
2022-08-21T00:12:48.226Z,19.33
2022-08-21T00:15:20.599Z,18.85
2022-08-21T00:17:47.488Z,18.70
2022-08-21T00:20:16.833Z,20.10
2022-08-21T00:22:44.066Z,22.35
2022-08-21T00:25:12.094Z,20.63
2022-08-21T00:27:39.045Z,22.40
2022-08-21T00:30:09.774Z,20.63
2022-08-21T00:32:39.009Z,19.90
2022-08-21T00:35:12.692Z,21.95
2022-08-21T00:37:40.983Z,22.33
2022-08-21T00:40:13.184Z,21.90
2022-08-21T00:42:40.225Z,22.75
2022-08-21T00:45:07.937Z,21.42
2022-08-21T00:47:34.786Z,22.05
2022-08-21T00:50:02.033Z,21.25
2022-08-21T00:52:33.213Z,21.30
2022-08-21T00:55:01.075Z,21.48
2022-08-21T00:57:34.570Z,21.25
2022-08-21T01:00:04.948Z,21.95
2022-08-21T01:02:32.324Z,22.30
2022-08-21T01:04:59.308Z,22.75
2022-08-21T01:07:27.541Z,22.33
2022-08-21T01:09:54.662Z,21.25
2022-08-21T01:12:21.536Z,21.27
2022-08-21T01:14:49.514Z,20.20
2022-08-21T01:17:18.517Z,20.35
2022-08-21T01:19:45.347Z,20.65
2022-08-21T01:22:12.297Z,20.33
2022-08-21T01:24:39.218Z,20.95
2022-08-21T01:27:06.537Z,19.02
2022-08-21T01:29:39.717Z,20.13
2022-08-21T01:32:10.467Z,20.20
2022-08-21T01:34:40.715Z,21.85
2022-08-21T01:37:08.379Z,19.70
2022-08-21T01:39:36.735Z,21.42
2022-08-21T01:42:04.915Z,21.30
2022-08-21T01:44:32.355Z,20.85
2022-08-21T01:47:02.155Z,21.70
2022-08-21T01:49:29.792Z,20.00
2022-08-21T01:51:56.613Z,21.67
2022-08-21T01:54:23.649Z,20.60
2022-08-21T01:56:53.407Z,22.10
2022-08-21T01:59:22.494Z,20.70
2022-08-21T02:01:49.881Z,24.90
2022-08-21T02:04:16.906Z,24.27
2022-08-21T02:06:44.970Z,22.85
2022-08-21T02:09:15.014Z,22.70
2022-08-21T02:11:42.775Z,23.52
2022-08-21T02:14:15.274Z,23.45
2022-08-21T02:17:05.511Z,22.77
2022-08-21T02:19:40.413Z,21.48
2022-08-21T02:22:11.647Z,21.73
2022-08-21T02:24:54.037Z,20.98
2022-08-21T02:27:27.229Z,21.65
2022-08-21T02:29:57.760Z,22.23
2022-08-21T02:32:25.149Z,21.42
2022-08-21T02:34:53.247Z,24.73
2022-08-21T02:37:20.155Z,22.42
2022-08-21T02:39:47.051Z,22.60
2022-08-21T02:42:13.995Z,22.48
2022-08-21T02:44:40.790Z,22.00
2022-08-21T02:47:08.104Z,22.17
2022-08-21T02:49:35.009Z,23.05
2022-08-21T02:52:01.847Z,24.40
2022-08-21T02:54:28.785Z,22.48
2022-08-21T02:56:55.629Z,23.45
2022-08-21T02:59:22.457Z,24.63
2022-08-21T03:01:49.331Z,25.77
2022-08-21T03:04:16.290Z,23.92
2022-08-21T03:06:43.826Z,25.02
2022-08-21T03:09:10.694Z,23.98
2022-08-21T03:11:37.566Z,24.33
2022-08-21T03:14:06.140Z,23.77
2022-08-21T03:16:35.127Z,24.92
2022-08-21T03:19:03.753Z,24.23
2022-08-21T03:21:31.325Z,25.58
2022-08-21T03:23:58.168Z,26.30
2022-08-21T03:26:27.836Z,26.15
2022-08-21T03:28:58.660Z,25.25
2022-08-21T03:31:29.665Z,26.50
2022-08-21T03:33:57.447Z,26.70
2022-08-21T03:36:24.936Z,26.08
2022-08-21T03:38:51.848Z,26.13
2022-08-21T03:41:18.708Z,27.50
2022-08-21T03:43:45.585Z,26.83
2022-08-21T03:46:12.682Z,25.98
2022-08-21T03:48:39.939Z,25.75
2022-08-21T03:51:07.586Z,25.33
2022-08-21T03:53:35.016Z,27.45
2022-08-21T03:56:01.907Z,26.52
2022-08-21T03:58:29.522Z,25.55
2022-08-21T04:00:58.995Z,27.45
2022-08-21T04:03:27.039Z,26.83
2022-08-21T04:05:54.019Z,26.75
2022-08-21T04:08:20.971Z,29.00
2022-08-21T04:10:50.984Z,28.40
2022-08-21T04:13:18.200Z,26.95
2022-08-21T04:15:45.096Z,28.02
2022-08-21T04:18:12.067Z,26.80
2022-08-21T04:20:40.393Z,27.17
2022-08-21T04:23:08.009Z,26.48
2022-08-21T04:25:34.936Z,25.83
2022-08-21T04:28:03.076Z,26.52
2022-08-21T04:30:30.296Z,26.60
2022-08-21T04:32:59.014Z,26.75
2022-08-21T04:35:28.732Z,25.65
2022-08-21T04:37:55.666Z,25.17
2022-08-21T04:40:25.739Z,24.88
2022-08-21T04:42:55.863Z,25.10
2022-08-21T04:45:27.357Z,24.52
2022-08-21T04:47:56.424Z,24.35
2022-08-21T04:50:37.149Z,24.13
2022-08-21T04:53:08.510Z,24.60
2022-08-21T04:55:36.064Z,23.90
2022-08-21T04:58:02.974Z,24.23
2022-08-21T05:00:30.093Z,22.93
2022-08-21T05:03:00.437Z,21.80
2022-08-21T05:05:30.155Z,20.13
2022-08-21T05:08:00.436Z,21.45
2022-08-21T05:10:27.703Z,24.20
2022-08-21T05:12:55.689Z,22.30
2022-08-21T05:15:23.031Z,21.48
2022-08-21T05:17:52.402Z,21.77
2022-08-21T05:20:22.308Z,21.17
2022-08-21T05:22:49.157Z,20.75
2022-08-21T05:25:17.693Z,21.30
2022-08-21T05:27:49.247Z,20.85
2022-08-21T05:30:18.985Z,20.20
2022-08-21T05:32:45.766Z,21.52
2022-08-21T05:35:12.731Z,20.98
2022-08-21T05:37:39.597Z,21.30
2022-08-21T05:40:22.486Z,20.65
2022-08-21T05:42:55.564Z,20.67
2022-08-21T05:45:41.680Z,20.38
2022-08-21T05:48:21.214Z,20.13
2022-08-21T05:50:49.084Z,18.98
2022-08-21T05:53:18.418Z,19.75
2022-08-21T05:55:47.000Z,19.73
2022-08-21T05:58:16.747Z,20.05
2022-08-21T06:00:44.910Z,20.17
2022-08-21T06:03:13.693Z,18.60
2022-08-21T06:05:40.528Z,19.35
2022-08-21T06:08:07.289Z,19.63
2022-08-21T06:10:34.098Z,20.15
2022-08-21T06:13:01.134Z,19.15
2022-08-21T06:15:28.289Z,17.35
2022-08-21T06:17:55.913Z,18.08
2022-08-21T06:20:22.999Z,17.45
2022-08-21T06:22:49.842Z,16.67
2022-08-21T06:25:16.757Z,17.00
2022-08-21T06:27:43.658Z,16.13
2022-08-21T06:30:11.023Z,16.05
2022-08-21T06:32:38.797Z,16.27
2022-08-21T06:35:06.354Z,16.08
2022-08-21T06:37:33.785Z,17.05
2022-08-21T06:40:00.725Z,16.27
2022-08-21T06:42:29.093Z,17.02
2022-08-21T06:44:57.581Z,17.08
2022-08-21T06:47:24.668Z,14.95
2022-08-21T06:49:51.491Z,14.35
2022-08-21T06:52:18.351Z,14.32
2022-08-21T06:54:46.425Z,14.00
2022-08-21T06:57:13.282Z,14.38
2022-08-21T06:59:40.186Z,13.32
2022-08-21T07:02:07.088Z,13.73
2022-08-21T07:04:34.410Z,13.15
2022-08-21T07:07:01.289Z,13.52
2022-08-21T07:09:28.161Z,12.68
2022-08-21T07:11:56.688Z,12.77
2022-08-21T07:14:23.874Z,11.70
2022-08-21T07:16:51.772Z,12.68
2022-08-21T07:19:18.978Z,12.00
2022-08-21T07:21:46.001Z,11.75
2022-08-21T07:24:13.583Z,11.23
2022-08-21T07:26:41.117Z,11.00
2022-08-21T07:29:07.901Z,10.52
2022-08-21T07:31:34.716Z,9.55
2022-08-21T07:34:01.692Z,9.43
2022-08-21T07:36:28.601Z,8.68
2022-08-21T07:38:55.480Z,7.95
2022-08-21T07:41:25.602Z,7.85
2022-08-21T07:43:53.158Z,8.02
2022-08-21T07:46:20.632Z,7.30
2022-08-21T07:48:47.633Z,7.10
2022-08-21T07:51:17.666Z,7.28
2022-08-21T07:53:49.861Z,6.95
2022-08-21T07:56:17.539Z,8.02
2022-08-21T07:58:44.414Z,8.15
2022-08-21T08:01:11.512Z,8.00
2022-08-21T08:03:39.728Z,7.88
2022-08-21T08:06:09.562Z,8.02
2022-08-21T08:08:36.401Z,7.60
2022-08-21T08:11:03.322Z,7.25
2022-08-21T08:13:30.242Z,8.18
2022-08-21T08:15:57.617Z,8.65
2022-08-21T08:18:24.435Z,8.57
2022-08-21T08:20:51.310Z,9.40
2022-08-21T08:23:18.315Z,9.25
2022-08-21T08:25:45.178Z,8.75
2022-08-21T08:28:17.021Z,9.23
2022-08-21T08:30:47.565Z,10.20
2022-08-21T08:33:15.401Z,9.57
2022-08-21T08:35:45.640Z,9.35
2022-08-21T08:38:13.219Z,10.10
2022-08-21T08:40:49.116Z,10.00
2022-08-21T08:43:16.080Z,10.50
2022-08-21T08:45:47.793Z,10.15
2022-08-21T08:48:20.688Z,10.43
2022-08-21T08:50:57.419Z,10.70
2022-08-21T08:53:31.150Z,11.55
2022-08-21T08:55:59.067Z,11.43
2022-08-21T08:58:33.609Z,10.98
2022-08-21T09:01:01.072Z,12.45
2022-08-21T09:03:29.153Z,12.95
2022-08-21T09:06:10.393Z,12.35
2022-08-21T09:08:40.051Z,13.35
2022-08-21T09:11:30.011Z,13.27
2022-08-21T09:13:56.760Z,13.75
2022-08-21T09:16:50.565Z,13.57
2022-08-21T09:19:36.561Z,14.48
2022-08-21T09:22:18.590Z,12.63
2022-08-21T09:25:03.831Z,13.02
2022-08-21T09:27:32.417Z,13.75
2022-08-21T09:29:59.629Z,13.05
2022-08-21T09:32:37.840Z,12.90
2022-08-21T09:35:14.273Z,12.50
2022-08-21T09:37:53.568Z,13.05
2022-08-21T09:40:23.309Z,12.70
2022-08-21T09:42:59.261Z,13.73
2022-08-21T09:45:26.501Z,14.52
2022-08-21T09:47:53.376Z,14.10
2022-08-21T09:50:27.759Z,15.30
2022-08-21T09:53:01.138Z,14.02
2022-08-21T09:55:58.541Z,13.35
2022-08-21T09:58:36.081Z,12.18
2022-08-21T10:01:05.741Z,12.00
2022-08-21T10:03:32.949Z,11.40
2022-08-21T10:06:09.552Z,10.27
2022-08-21T10:08:40.122Z,11.50
2022-08-21T10:11:16.645Z,12.25
2022-08-21T10:13:46.322Z,12.38
2022-08-21T10:16:35.213Z,11.88
2022-08-21T10:19:15.470Z,11.38
2022-08-21T10:22:18.323Z,11.93
2022-08-21T10:25:20.842Z,12.75
2022-08-21T10:28:13.583Z,14.38
2022-08-21T10:31:03.775Z,13.57
2022-08-21T10:34:09.260Z,14.98
2022-08-21T10:37:13.369Z,15.43
2022-08-21T10:40:05.869Z,15.80
2022-08-21T10:42:56.615Z,14.35
2022-08-21T10:46:08.118Z,15.30
2022-08-21T10:48:46.719Z,15.68
2022-08-21T10:51:16.501Z,16.52
2022-08-21T10:53:56.081Z,15.93
2022-08-21T10:56:29.702Z,14.85
2022-08-21T10:59:09.334Z,14.95
2022-08-21T11:01:54.240Z,15.63
2022-08-21T11:04:30.009Z,14.25
2022-08-21T11:07:22.204Z,14.55
2022-08-21T11:09:50.825Z,14.45
2022-08-21T11:12:24.992Z,13.82
2022-08-21T11:14:56.445Z,13.18
2022-08-21T11:17:34.091Z,12.55
2022-08-21T11:20:23.108Z,13.10
2022-08-21T11:23:15.507Z,14.32
2022-08-21T11:25:48.135Z,14.43
2022-08-21T11:28:32.249Z,13.90
2022-08-21T11:31:23.240Z,14.63
2022-08-21T11:34:26.909Z,15.20
2022-08-21T11:37:19.542Z,14.25
2022-08-21T11:40:01.452Z,14.60
2022-08-21T11:42:39.170Z,13.57
2022-08-21T11:45:47.165Z,14.85
2022-08-21T11:48:38.792Z,15.38
2022-08-21T11:51:19.790Z,16.20
2022-08-21T11:53:54.261Z,17.83
2022-08-21T11:56:35.957Z,17.73
2022-08-21T11:59:14.832Z,17.58
2022-08-21T12:01:46.290Z,18.73
2022-08-21T12:04:46.904Z,20.63
2022-08-21T12:07:18.406Z,20.83
2022-08-21T12:09:57.145Z,19.67
2022-08-21T12:12:34.227Z,19.13
2022-08-21T12:15:22.730Z,17.15
2022-08-21T12:18:19.759Z,16.23
2022-08-21T12:21:04.679Z,15.48
2022-08-21T12:23:33.243Z,15.50
2022-08-21T12:26:04.473Z,16.73
2022-08-21T12:28:32.386Z,15.80
2022-08-21T12:30:59.560Z,14.93
2022-08-21T12:33:40.278Z,14.68
2022-08-21T12:36:22.013Z,15.57
2022-08-21T12:38:53.342Z,13.90
2022-08-21T12:41:25.647Z,14.43
2022-08-21T12:44:05.361Z,13.45
2022-08-21T12:46:47.320Z,13.27
2022-08-21T12:49:19.839Z,13.82
2022-08-21T12:51:57.534Z,12.40
2022-08-21T12:54:37.867Z,13.52
2022-08-21T12:57:06.963Z,14.15
2022-08-21T12:59:39.054Z,14.25
2022-08-21T13:02:25.850Z,14.13
2022-08-21T13:04:56.182Z,13.10
2022-08-21T13:07:35.492Z,13.52
2022-08-21T13:10:25.494Z,13.13
2022-08-21T13:12:56.005Z,13.52
2022-08-21T13:15:35.034Z,12.18
2022-08-21T13:18:04.423Z,12.30
2022-08-21T13:20:43.316Z,12.23
2022-08-21T13:23:26.935Z,12.07
2022-08-21T13:25:55.111Z,11.18
2022-08-21T13:28:22.806Z,12.25
2022-08-21T13:30:53.124Z,12.57
2022-08-21T13:33:23.994Z,14.73
2022-08-21T13:36:10.175Z,14.35
2022-08-21T13:38:40.117Z,15.65
2022-08-21T13:41:26.633Z,15.30
2022-08-21T13:44:18.440Z,14.75
2022-08-21T13:46:48.899Z,14.43
2022-08-21T13:49:20.190Z,14.15
2022-08-21T13:51:47.715Z,14.52
2022-08-21T13:54:28.047Z,13.45
2022-08-21T13:56:55.764Z,13.90
2022-08-21T13:59:35.639Z,14.45
2022-08-21T14:02:13.666Z,13.70
2022-08-21T14:05:02.617Z,14.00
2022-08-21T14:07:40.244Z,13.68
2022-08-21T14:10:21.665Z,12.00
2022-08-21T14:13:06.584Z,13.93
2022-08-21T14:15:35.440Z,14.18
2022-08-21T14:18:17.173Z,12.93
2022-08-21T14:20:44.885Z,13.45
2022-08-21T14:23:12.557Z,13.82
2022-08-21T14:25:45.942Z,13.40
2022-08-21T14:28:27.893Z,13.43
2022-08-21T14:30:57.710Z,13.05
2022-08-21T14:33:31.851Z,13.40
2022-08-21T14:35:59.738Z,13.02
2022-08-21T14:38:29.180Z,12.80
2022-08-21T14:41:04.415Z,13.13
2022-08-21T14:43:32.364Z,13.98
2022-08-21T14:45:59.382Z,13.73
2022-08-21T14:48:26.258Z,13.73
2022-08-21T14:50:57.096Z,13.60
2022-08-21T14:53:26.634Z,14.55
2022-08-21T14:56:08.655Z,14.18
2022-08-21T14:58:50.217Z,14.68
2022-08-21T15:01:19.437Z,14.32
2022-08-21T15:03:49.250Z,15.10
2022-08-21T15:06:18.497Z,14.77
2022-08-21T15:08:45.448Z,15.30
2022-08-21T15:11:41.771Z,12.68
2022-08-21T15:14:11.792Z,14.57
2022-08-21T15:16:38.792Z,14.50
2022-08-21T15:19:05.632Z,14.48
2022-08-21T15:21:32.542Z,13.60
2022-08-21T15:23:59.393Z,14.25
2022-08-21T15:26:26.968Z,13.90
2022-08-21T15:28:53.810Z,13.93
2022-08-21T15:31:20.669Z,13.73
2022-08-21T15:33:47.570Z,13.68
2022-08-21T15:36:14.616Z,14.05
2022-08-21T15:38:41.526Z,14.77
2022-08-21T15:41:08.541Z,14.38
2022-08-21T15:43:46.301Z,13.00
2022-08-21T15:46:15.521Z,13.98
2022-08-21T15:48:42.634Z,14.85
2022-08-21T15:51:11.847Z,14.73
2022-08-21T15:53:40.974Z,13.90
2022-08-21T15:56:25.652Z,14.70
2022-08-21T15:58:56.943Z,14.05
2022-08-21T16:01:23.849Z,14.07
2022-08-21T16:03:53.154Z,14.07
2022-08-21T16:06:38.483Z,15.13
2022-08-21T16:09:06.890Z,14.48
2022-08-21T16:11:33.770Z,14.05
2022-08-21T16:14:00.823Z,13.65
2022-08-21T16:16:29.125Z,14.20
2022-08-21T16:18:58.709Z,13.00
2022-08-21T16:21:25.574Z,14.02
2022-08-21T16:23:52.538Z,13.00
2022-08-21T16:26:19.434Z,13.35
2022-08-21T16:28:50.024Z,13.75
2022-08-21T16:31:17.075Z,14.00
2022-08-21T16:33:48.292Z,13.77
2022-08-21T16:36:15.897Z,13.30
2022-08-21T16:38:43.773Z,13.70
2022-08-21T16:41:13.811Z,13.88
2022-08-21T16:43:42.823Z,13.18
2022-08-21T16:46:12.239Z,14.18
2022-08-21T16:48:40.419Z,13.27
2022-08-21T16:51:07.847Z,13.43
2022-08-21T16:53:34.949Z,12.77
2022-08-21T16:56:01.914Z,13.48
2022-08-21T16:58:34.920Z,14.43
2022-08-21T17:01:06.411Z,14.10
2022-08-21T17:03:39.055Z,13.40
2022-08-21T17:06:07.984Z,14.52
2022-08-21T17:08:35.329Z,13.80
2022-08-21T17:11:03.126Z,14.20
2022-08-21T17:13:30.771Z,13.65
2022-08-21T17:15:57.621Z,13.65
2022-08-21T17:18:25.550Z,14.35
2022-08-21T17:20:52.903Z,13.50
2022-08-21T17:23:20.654Z,14.45
2022-08-21T17:25:50.926Z,13.73
2022-08-21T17:28:23.258Z,13.65
2022-08-21T17:30:51.404Z,13.98
2022-08-21T17:33:19.685Z,14.27
2022-08-21T17:35:47.252Z,14.95
2022-08-21T17:38:14.848Z,14.90
2022-08-21T17:40:42.698Z,15.18
2022-08-21T17:43:12.902Z,15.38
2022-08-21T17:45:40.608Z,15.30
2022-08-21T17:48:08.308Z,15.35
2022-08-21T17:50:35.753Z,14.52
2022-08-21T17:53:05.176Z,15.00
2022-08-21T17:55:33.982Z,14.15
2022-08-21T17:58:03.659Z,14.68
2022-08-21T18:00:31.798Z,16.50
2022-08-21T18:03:14.639Z,16.27
2022-08-21T18:05:46.795Z,15.32
2022-08-21T18:08:14.619Z,14.80
2022-08-21T18:10:45.013Z,17.50
2022-08-21T18:13:17.371Z,16.73
2022-08-21T18:15:49.074Z,17.20
2022-08-21T18:18:15.988Z,18.23
2022-08-21T18:20:42.945Z,17.83
2022-08-21T18:23:09.805Z,17.67
2022-08-21T18:25:36.793Z,18.17
2022-08-21T18:28:06.927Z,20.70
2022-08-21T18:30:41.577Z,23.75
2022-08-21T18:33:11.333Z,21.33
2022-08-21T18:35:38.138Z,21.65
2022-08-21T18:38:04.932Z,21.52
2022-08-21T18:40:33.745Z,21.80
2022-08-21T18:43:04.076Z,22.45
2022-08-21T18:45:31.132Z,21.55
2022-08-21T18:47:58.535Z,21.50
2022-08-21T18:50:27.570Z,23.25
2022-08-21T18:52:55.795Z,22.60
2022-08-21T18:55:24.645Z,23.10
2022-08-21T18:57:53.070Z,22.70
2022-08-21T19:00:24.223Z,23.48
2022-08-21T19:02:51.532Z,21.38
2022-08-21T19:05:21.139Z,23.75
2022-08-21T19:07:50.671Z,25.95
2022-08-21T19:10:24.182Z,24.05
2022-08-21T19:12:57.914Z,24.08
2022-08-21T19:15:24.970Z,23.58
2022-08-21T19:17:54.540Z,23.35
2022-08-21T19:20:27.165Z,21.70
2022-08-21T19:25:46.375Z,24.52
2022-08-21T19:28:25.962Z,23.70
2022-08-21T19:31:01.727Z,23.30
2022-08-21T19:33:34.084Z,24.15
2022-08-21T19:36:02.490Z,24.42
2022-08-21T19:38:29.862Z,23.73
2022-08-21T19:40:57.343Z,23.08
2022-08-21T19:43:24.874Z,22.90
2022-08-21T19:45:56.924Z,22.42
2022-08-21T19:48:26.039Z,21.83
2022-08-21T19:50:53.558Z,21.95
2022-08-21T19:53:20.641Z,19.88
2022-08-21T19:55:48.474Z,18.27
2022-08-21T19:58:32.283Z,19.85
2022-08-21T20:00:59.148Z,18.67
2022-08-21T20:03:26.205Z,18.85
2022-08-21T20:05:54.115Z,19.17
2022-08-21T20:08:21.203Z,20.33
2022-08-21T20:10:49.929Z,18.98
2022-08-21T20:13:22.107Z,18.70
2022-08-21T20:15:50.550Z,18.98
2022-08-21T20:18:18.334Z,18.13
2022-08-21T20:20:48.393Z,17.23
2022-08-21T20:23:17.198Z,18.88
2022-08-21T20:25:45.003Z,18.40
2022-08-21T20:28:12.988Z,18.30
2022-08-21T20:33:29.321Z,17.02
2022-08-21T20:35:56.163Z,17.80
2022-08-21T20:38:24.388Z,17.58
2022-08-21T20:40:53.537Z,17.95
2022-08-21T20:43:22.430Z,18.05
2022-08-21T20:45:50.066Z,18.40
2022-08-21T20:48:30.830Z,19.48
2022-08-21T20:51:06.184Z,18.00
2022-08-21T20:53:55.436Z,18.15
2022-08-21T20:56:33.431Z,18.73
2022-08-21T20:59:33.048Z,18.00
2022-08-21T21:02:18.329Z,17.25
2022-08-21T21:04:51.611Z,17.38
2022-08-21T21:07:24.980Z,16.77
2022-08-21T21:09:55.370Z,17.65
2022-08-21T21:12:32.548Z,19.00
2022-08-21T21:15:07.263Z,17.05
2022-08-21T21:17:50.588Z,16.13
2022-08-21T21:20:34.658Z,16.27
2022-08-21T21:23:14.723Z,15.93
2022-08-21T21:25:56.777Z,16.35
2022-08-21T21:28:43.117Z,16.48
2022-08-21T21:31:10.936Z,16.15
2022-08-21T21:33:39.722Z,15.35
2022-08-21T21:36:22.638Z,15.18
2022-08-21T21:39:10.369Z,16.15
2022-08-21T21:41:46.249Z,16.45
2022-08-21T21:44:33.080Z,16.70
2022-08-21T21:47:02.938Z,16.65
2022-08-21T21:49:49.507Z,15.82
2022-08-21T21:52:19.921Z,15.93
2022-08-21T21:55:30.872Z,14.93
2022-08-21T21:58:10.791Z,14.68
2022-08-21T22:00:52.224Z,14.57
2022-08-21T22:03:38.111Z,14.27
2022-08-21T22:06:08.792Z,14.90
2022-08-21T22:08:50.663Z,14.38
2022-08-21T22:11:35.758Z,14.13
2022-08-21T22:14:22.792Z,14.38
2022-08-21T22:16:51.237Z,16.08
2022-08-21T22:19:37.733Z,14.55
2022-08-21T22:22:34.268Z,15.60
2022-08-21T22:25:15.920Z,15.52
2022-08-21T22:27:44.630Z,15.18
2022-08-21T22:30:16.649Z,15.77
2022-08-21T22:32:50.357Z,15.18
2022-08-21T22:35:23.572Z,15.63
2022-08-21T22:37:58.685Z,16.58
2022-08-21T22:40:36.065Z,16.95
2022-08-21T22:43:09.744Z,15.90
2022-08-21T22:46:00.721Z,14.95
2022-08-21T22:48:31.320Z,15.70
2022-08-21T22:51:01.258Z,15.90
2022-08-21T22:53:30.836Z,17.65
2022-08-21T22:56:00.481Z,17.27
2022-08-21T22:58:52.297Z,18.20
2022-08-21T23:01:22.070Z,17.15
2022-08-21T23:03:57.368Z,15.25
2022-08-21T23:06:32.623Z,15.13
2022-08-21T23:09:01.123Z,15.80
2022-08-21T23:11:39.847Z,13.30
2022-08-21T23:14:07.289Z,15.00
2022-08-21T23:16:47.423Z,14.48
2022-08-21T23:19:51.973Z,15.90
2022-08-21T23:22:34.904Z,15.10
2022-08-21T23:25:24.346Z,17.40
2022-08-21T23:28:51.808Z,17.45
2022-08-21T23:31:32.592Z,14.80
2022-08-21T23:34:05.873Z,16.65
2022-08-21T23:37:48.560Z,18.70
2022-08-21T23:40:51.354Z,17.67
2022-08-21T23:43:25.649Z,18.88
2022-08-21T23:46:33.817Z,18.80
2022-08-21T23:49:13.317Z,19.95
2022-08-21T23:52:22.241Z,20.90
2022-08-21T23:55:11.203Z,20.33
2022-08-21T23:57:48.060Z,20.02
